Time;durP1;ratioP1;P1;durP2;ratioP2;P2;SDS_P1;SDS_P2;PMS_P1;PMS_P2;Temp;Humidity;BMP_temperature;BMP_pressure;BME280_temperature;BME280_humidity;BME280_pressure;Samples;Min_cycle;Max_cycle;Signal;HPM_P1;HPM_P2
2022/01/01 00:02:07;;;;;;;22.73;12.15;;;;;;;8.98;82.44;98501.81;5117652;28;20031;-68
2022/01/01 00:04:32;;;;;;;24.77;13.45;;;;;;;8.97;82.72;98500.97;5117345;28;20431;-68
2022/01/01 00:06:58;;;;;;;16.50;9.70;;;;;;;8.97;82.68;98503.72;5116955;28;20031;-68
2022/01/01 00:09:23;;;;;;;36.50;17.95;;;;;;;8.97;83.46;98503.72;5117185;28;20146;-68
2022/01/01 00:11:49;;;;;;;19.40;10.57;;;;;;;9.00;82.74;98507.81;5117520;28;20468;-67
2022/01/01 00:14:14;;;;;;;18.48;10.50;;;;;;;9.04;83.34;98514.34;5117521;28;20095;-67
2022/01/01 00:16:39;;;;;;;15.02;9.90;;;;;;;9.04;83.61;98520.63;5116783;28;20472;-68
2022/01/01 00:19:05;;;;;;;14.40;8.32;;;;;;;9.07;83.08;98519.25;5116663;28;20153;-67
2022/01/01 00:21:30;;;;;;;13.73;7.95;;;;;;;9.06;83.26;98523.09;5098640;28;20020;-68
2022/01/01 00:23:56;;;;;;;13.50;8.30;;;;;;;9.08;83.39;98518.94;5117141;28;20023;-70
2022/01/01 00:26:21;;;;;;;12.70;6.95;;;;;;;9.11;84.27;98523.06;5116655;28;20031;-67
2022/01/01 00:28:47;;;;;;;16.70;8.23;;;;;;;9.12;83.49;98516.47;5117020;28;20020;-68
2022/01/01 00:31:13;;;;;;;16.25;9.02;;;;;;;9.12;83.62;98515.66;5113050;28;20046;-67
2022/01/01 00:33:38;;;;;;;20.95;11.05;;;;;;;9.14;84.10;98517.00;5113956;28;20023;-68
2022/01/01 00:36:04;;;;;;;12.27;7.32;;;;;;;9.16;84.30;98520.28;5113084;28;20036;-68
2022/01/01 00:38:29;;;;;;;13.10;6.95;;;;;;;9.18;83.85;98512.56;5113214;28;20160;-68
2022/01/01 00:40:55;;;;;;;12.23;6.80;;;;;;;9.19;84.17;98522.41;5113272;28;20023;-67
2022/01/01 00:43:20;;;;;;;13.27;6.70;;;;;;;9.19;84.04;98521.63;5095413;28;20086;-67
2022/01/01 00:45:46;;;;;;;12.85;7.32;;;;;;;9.20;83.99;98528.72;5113543;28;20019;-68
2022/01/01 00:48:12;;;;;;;12.18;6.65;;;;;;;9.20;84.77;98520.53;5113261;28;20120;-68
2022/01/01 00:50:37;;;;;;;11.50;6.40;;;;;;;9.20;84.48;98529.53;5112926;28;20077;-68
2022/01/01 00:53:03;;;;;;;9.40;5.38;;;;;;;9.24;84.06;98530.59;5113362;28;20707;-68
2022/01/01 00:55:28;;;;;;;10.48;5.78;;;;;;;9.23;84.48;98528.16;5094895;28;20475;-67
2022/01/01 00:57:54;;;;;;;8.65;5.60;;;;;;;9.26;84.91;98534.97;5113388;28;20113;-68
2022/01/01 01:00:19;;;;;;;6.82;4.22;;;;;;;9.28;84.57;98539.06;5095119;28;20038;-67
2022/01/01 01:02:45;;;;;;;7.80;4.80;;;;;;;9.30;85.32;98539.59;5095096;28;20028;-68
2022/01/01 01:05:10;;;;;;;6.93;4.88;;;;;;;9.30;85.15;98538.78;5113334;28;20043;-68
2022/01/01 01:07:36;;;;;;;8.68;5.25;;;;;;;9.31;85.08;98545.88;5112846;28;20024;-68
2022/01/01 01:10:03;;;;;;;6.90;3.97;;;;;;;9.29;84.64;98542.59;5113103;28;20023;-68
2022/01/01 01:12:38;;;;;;;7.63;4.20;;;;;;;9.28;84.92;98549.19;5113606;28;20024;-68
2022/01/01 01:15:04;;;;;;;7.55;4.13;;;;;;;9.25;85.90;98558.78;5113236;28;20034;-68
2022/01/01 01:17:30;;;;;;;6.50;4.30;;;;;;;9.21;85.95;98565.94;5112888;28;20058;-68
2022/01/01 01:19:56;;;;;;;7.45;4.30;;;;;;;9.15;86.34;98581.59;5113279;28;20479;-68
2022/01/01 01:22:21;;;;;;;6.10;4.03;;;;;;;9.09;86.61;98585.44;5113037;28;20028;-68
2022/01/01 01:24:46;;;;;;;6.70;4.35;;;;;;;9.05;86.95;98593.38;5094623;28;20039;-68
2022/01/01 01:27:12;;;;;;;7.53;4.68;;;;;;;9.04;86.75;98582.75;5094099;28;20035;-68
2022/01/01 01:29:41;;;;;;;8.32;4.80;;;;;;;9.02;86.57;98587.69;5113153;28;20022;-69
2022/01/01 01:32:07;;;;;;;10.25;5.47;;;;;;;9.01;86.83;98592.31;5096148;28;20072;-68
2022/01/01 01:34:33;;;;;;;6.70;4.20;;;;;;;9.03;87.59;98594.78;5112855;28;20409;-68
2022/01/01 01:36:58;;;;;;;6.85;4.70;;;;;;;9.02;87.20;98596.69;5112742;28;20353;-68
2022/01/01 01:39:24;;;;;;;9.43;4.93;;;;;;;9.01;87.99;98603.25;5112998;28;20028;-68
2022/01/01 01:41:51;;;;;;;6.10;4.45;;;;;;;9.02;87.67;98604.09;5112737;28;20024;-68
2022/01/01 01:44:29;;;;;;;8.15;4.93;;;;;;;9.02;87.69;98601.34;5112685;28;20035;-68
2022/01/01 01:46:55;;;;;;;8.77;5.30;;;;;;;9.00;88.29;98603.56;5112208;28;20035;-68
2022/01/01 01:49:21;;;;;;;7.07;4.28;;;;;;;8.99;88.51;98613.66;5112522;28;20027;-67
2022/01/01 01:51:47;;;;;;;8.38;4.82;;;;;;;8.97;88.34;98604.91;5112337;28;20035;-70
2022/01/01 01:54:17;;;;;;;6.25;4.38;;;;;;;9.00;88.23;98609.03;5112561;28;20040;-68
2022/01/01 01:56:45;;;;;;;6.95;3.97;;;;;;;9.00;88.44;98619.97;5112132;28;20084;-69
2022/01/01 01:59:10;;;;;;;8.63;5.07;;;;;;;8.98;88.58;98613.97;5112301;28;20020;-69
2022/01/01 02:01:36;;;;;;;6.97;4.78;;;;;;;9.01;88.43;98614.19;5112011;28;20134;-68
2022/01/01 02:04:01;;;;;;;8.15;5.00;;;;;;;9.02;87.71;98628.72;5112058;28;20230;-68
2022/01/01 02:06:27;;;;;;;7.63;4.60;;;;;;;9.03;88.83;98619.41;5111851;28;20022;-69
2022/01/01 02:08:53;;;;;;;8.77;4.75;;;;;;;9.03;88.96;98622.94;5112469;28;20039;-68
2022/01/01 02:11:21;;;;;;;7.28;4.63;;;;;;;9.05;88.54;98633.63;5112096;28;20034;-68
2022/01/01 02:18:44;;;;;;;7.43;4.38;;;;;;;9.08;88.74;98639.34;5112067;28;20556;-69
2022/01/01 02:21:10;;;;;;;8.95;4.90;;;;;;;9.09;88.37;98637.44;5111863;28;20376;-68
2022/01/01 02:23:39;;;;;;;7.53;5.57;;;;;;;9.09;88.85;98640.97;5111926;28;20027;-68
2022/01/01 02:26:04;;;;;;;7.00;4.77;;;;;;;9.09;87.83;98642.91;5111667;28;20387;-68
2022/01/01 02:28:30;;;;;;;7.22;4.60;;;;;;;9.09;88.82;98645.66;5111858;28;20020;-68
2022/01/01 02:30:56;;;;;;;7.78;4.57;;;;;;;9.07;88.46;98650.56;5112532;27;20036;-68
2022/01/01 02:33:22;;;;;;;12.80;6.63;;;;;;;9.08;88.99;98652.22;5112051;28;20038;-68
2022/01/01 02:35:47;;;;;;;7.50;4.90;;;;;;;9.09;88.53;98653.84;5093115;28;20031;-68
2022/01/01 02:38:14;;;;;;;8.52;5.30;;;;;;;9.09;87.90;98662.88;5111818;28;20039;-68
2022/01/01 02:40:40;;;;;;;6.63;4.60;;;;;;;9.11;88.92;98661.75;5111674;28;20023;-68
2022/01/01 02:43:05;;;;;;;8.45;5.70;;;;;;;9.12;88.80;98666.97;5111414;28;20034;-68
2022/01/01 02:45:31;;;;;;;8.18;4.97;;;;;;;9.16;88.29;98665.31;5111222;28;20030;-68
2022/01/01 02:47:57;;;;;;;7.57;5.10;;;;;;;9.17;88.23;98664.19;5111092;28;20452;-68
2022/01/01 02:50:23;;;;;;;6.35;4.50;;;;;;;9.18;88.67;98667.75;5111362;28;20027;-68
2022/01/01 02:52:48;;;;;;;8.20;4.93;;;;;;;9.14;88.98;98659.31;5111157;28;20035;-69
2022/01/01 02:55:14;;;;;;;8.27;5.40;;;;;;;9.17;88.06;98674.31;5111228;28;20032;-68
2022/01/01 02:57:39;;;;;;;7.82;5.35;;;;;;;9.17;88.73;98663.38;5092767;28;20111;-69
2022/01/01 03:00:06;;;;;;;10.63;5.00;;;;;;;9.19;88.58;98653.78;5093146;28;20027;-69
2022/01/01 03:02:31;;;;;;;11.05;5.18;;;;;;;9.18;88.62;98665.81;5111403;28;20106;-68
2022/01/01 03:04:57;;;;;;;11.38;5.55;;;;;;;9.16;88.39;98672.69;5111243;28;20142;-68
2022/01/01 03:07:22;;;;;;;8.77;4.63;;;;;;;9.15;88.79;98674.63;5110721;28;20031;-68
2022/01/01 03:09:48;;;;;;;10.30;5.35;;;;;;;9.13;88.63;98682.28;5111629;28;20019;-70
2022/01/01 03:12:16;;;;;;;6.82;4.50;;;;;;;9.14;89.10;98677.63;5110935;28;20066;-67
2022/01/01 03:14:43;;;;;;;7.82;4.53;;;;;;;9.13;88.64;98684.19;5111256;28;20118;-67
2022/01/01 03:17:09;;;;;;;9.95;5.30;;;;;;;9.18;89.45;98686.91;5103743;28;20107;-67
2022/01/01 03:19:34;;;;;;;20.05;7.50;;;;;;;9.19;88.82;98683.06;5092039;28;20102;-67
2022/01/01 03:22:01;;;;;;;15.85;6.82;;;;;;;9.20;89.17;98688.25;5110368;28;20095;-68
2022/01/01 03:24:27;;;;;;;19.17;7.35;;;;;;;9.21;89.15;98683.59;5111075;28;20027;-68
2022/01/01 03:26:53;;;;;;;17.75;6.22;;;;;;;9.20;89.36;98684.72;5110676;28;20110;-68
2022/01/01 03:29:19;;;;;;;10.60;5.47;;;;;;;9.18;88.88;98682.25;5111032;28;20123;-68
2022/01/01 03:31:44;;;;;;;14.95;5.82;;;;;;;9.18;89.03;98676.75;5112779;28;20064;-68
2022/01/01 03:34:10;;;;;;;7.00;4.18;;;;;;;9.17;88.77;98677.88;5110291;28;20027;-68
2022/01/01 03:36:35;;;;;;;19.77;6.97;;;;;;;9.19;88.76;98681.13;5109928;28;20111;-68
2022/01/01 03:39:01;;;;;;;12.10;6.32;;;;;;;9.20;89.13;98684.72;5110683;28;20031;-66
2022/01/01 03:41:27;;;;;;;9.45;5.47;;;;;;;9.20;88.40;98691.00;5110878;28;20106;-69
2022/01/01 03:43:52;;;;;;;6.57;4.60;;;;;;;9.22;88.96;98694.25;5109106;28;20079;-67
2022/01/01 03:46:18;;;;;;;8.20;4.85;;;;;;;9.21;89.43;98689.88;5091309;28;20091;-67
2022/01/01 03:48:43;;;;;;;8.32;4.85;;;;;;;9.20;89.79;98690.19;5109724;28;20036;-66
2022/01/01 03:51:09;;;;;;;7.50;5.50;;;;;;;9.19;88.57;98691.28;5110407;28;20031;-66
2022/01/01 03:53:34;;;;;;;9.93;6.13;;;;;;;9.18;89.30;98698.66;5110529;28;20055;-66
2022/01/01 03:56:00;;;;;;;7.55;4.88;;;;;;;9.23;89.50;98712.31;5110307;28;20074;-67
2022/01/01 03:58:26;;;;;;;7.00;4.28;;;;;;;9.24;89.13;98702.22;5092242;28;20476;-66
2022/01/01 04:00:51;;;;;;;7.22;5.10;;;;;;;9.23;88.67;98706.03;5110541;28;20028;-65
2022/01/01 04:03:17;;;;;;;6.57;4.68;;;;;;;9.26;89.40;98712.84;5110332;28;20106;-66
2022/01/01 04:05:44;;;;;;;7.38;4.85;;;;;;;9.23;89.55;98706.03;5111870;28;20044;-65
2022/01/01 04:08:11;;;;;;;7.38;4.90;;;;;;;9.23;89.19;98715.06;5113823;28;20035;-65
2022/01/01 04:10:37;;;;;;;6.55;4.50;;;;;;;9.23;88.90;98704.09;5114463;28;20023;-66
2022/01/01 04:13:05;;;;;;;7.72;5.38;;;;;;;9.22;89.18;98718.88;5114030;28;20027;-66
2022/01/01 04:15:32;;;;;;;6.55;4.53;;;;;;;9.22;89.81;98729.84;5114645;28;20449;-65
2022/01/01 04:18:07;;;;;;;6.47;4.45;;;;;;;9.22;89.09;98723.56;5096077;28;20034;-66
2022/01/01 04:20:32;;;;;;;6.80;4.43;;;;;;;9.20;89.36;98732.03;5114609;28;20059;-66
2022/01/01 04:22:58;;;;;;;6.70;4.53;;;;;;;9.20;89.14;98726.56;5114044;28;20172;-65
2022/01/01 04:25:24;;;;;;;6.93;5.07;;;;;;;9.21;89.13;98728.19;5114271;28;20480;-65
2022/01/01 04:27:51;;;;;;;6.10;4.82;;;;;;;9.22;89.44;98727.09;5114123;28;20023;-65
2022/01/01 04:30:17;;;;;;;8.15;4.93;;;;;;;9.23;89.60;98736.16;5114100;28;20452;-67
2022/01/01 04:32:43;;;;;;;5.50;4.05;;;;;;;9.20;89.70;98733.97;5114653;27;20035;-65
2022/01/01 04:35:09;;;;;;;5.88;3.80;;;;;;;9.20;88.76;98725.75;5113979;28;20042;-66
2022/01/01 04:37:35;;;;;;;6.15;4.05;;;;;;;9.18;88.93;98730.69;5113595;28;20100;-66
2022/01/01 04:40:01;;;;;;;5.20;3.67;;;;;;;9.17;89.39;98737.25;5114008;28;20020;-66
2022/01/01 04:42:27;;;;;;;7.50;4.93;;;;;;;9.18;90.07;98736.16;5114023;28;20027;-66
2022/01/01 04:44:53;;;;;;;6.35;4.45;;;;;;;9.17;89.93;98737.25;5113857;28;20032;-65
2022/01/01 04:47:19;;;;;;;5.10;3.72;;;;;;;9.13;89.64;98747.97;5113368;28;20369;-65
2022/01/01 04:49:44;;;;;;;6.22;4.07;;;;;;;9.10;89.64;98745.78;5114881;27;20043;-65
2022/01/01 04:52:10;;;;;;;6.95;4.50;;;;;;;9.10;89.76;98748.53;5113077;28;20027;-65
2022/01/01 04:54:39;;;;;;;5.32;3.95;;;;;;;9.09;90.10;98750.41;5112618;28;20039;-65
2022/01/01 04:57:05;;;;;;;7.20;4.50;;;;;;;9.06;89.96;98752.91;5113626;27;20051;-66
2022/01/01 04:59:30;;;;;;;4.35;3.67;;;;;;;9.04;89.51;98750.44;5094342;28;20062;-67
2022/01/01 05:01:56;;;;;;;5.78;4.82;;;;;;;9.03;89.49;98751.53;5112864;27;20104;-66
2022/01/01 05:04:21;;;;;;;6.93;5.78;;;;;;;9.06;90.09;98747.44;5111456;28;20057;-66
2022/01/01 05:06:49;;;;;;;6.88;5.22;;;;;;;9.05;89.63;98760.28;5093435;28;20381;-66
2022/01/01 05:09:16;;;;;;;6.13;4.88;;;;;;;9.05;89.75;98754.00;5112905;28;20048;-67
2022/01/01 05:11:42;;;;;;;8.07;5.53;;;;;;;9.04;89.46;98746.91;5113672;27;20551;-66
2022/01/01 05:14:08;;;;;;;5.75;4.55;;;;;;;9.03;89.96;98753.47;5088681;28;20139;-67
2022/01/01 05:16:33;;;;;;;7.57;5.68;;;;;;;9.01;90.48;98756.47;5111059;28;20114;-66
2022/01/01 05:18:59;;;;;;;7.03;4.80;;;;;;;9.00;89.74;98752.09;5111860;28;20073;-65
2022/01/01 05:21:24;;;;;;;6.03;4.65;;;;;;;9.03;90.11;98758.94;5112460;28;20024;-65
2022/01/01 05:23:50;;;;;;;8.75;5.25;;;;;;;9.03;89.72;98758.94;5093684;28;20038;-65
2022/01/01 05:26:15;;;;;;;9.02;5.55;;;;;;;9.03;90.41;98767.16;5111461;28;20070;-66
2022/01/01 05:28:41;;;;;;;8.32;5.32;;;;;;;9.04;90.41;98777.00;5110458;28;20054;-66
2022/01/01 05:31:06;;;;;;;7.03;5.30;;;;;;;9.05;90.09;98767.69;5109182;28;20110;-66
2022/01/01 05:33:32;;;;;;;6.53;4.75;;;;;;;9.05;89.55;98786.84;5111084;28;20030;-66
2022/01/01 05:35:57;;;;;;;8.52;5.68;;;;;;;9.05;89.96;98790.38;5109728;28;20019;-66
2022/01/01 05:38:22;;;;;;;14.65;8.38;;;;;;;9.03;90.06;98787.09;5110586;28;20039;-65
2022/01/01 05:40:48;;;;;;;27.75;12.40;;;;;;;9.02;90.48;98790.94;5110742;28;20035;-66
2022/01/01 05:43:13;;;;;;;28.75;12.93;;;;;;;9.02;90.75;98793.66;5110866;28;20020;-66
2022/01/01 05:45:43;;;;;;;23.00;11.30;;;;;;;9.01;90.77;98794.75;5110187;28;20456;-64
2022/01/01 05:48:09;;;;;;;17.23;9.15;;;;;;;9.02;90.40;98804.59;5109308;28;20015;-65
2022/01/01 05:50:35;;;;;;;9.48;5.05;;;;;;;9.04;90.47;98812.56;5111400;28;20026;-64
2022/01/01 05:53:01;;;;;;;6.28;3.78;;;;;;;9.06;90.58;98799.41;5111435;28;20023;-65
2022/01/01 05:55:26;;;;;;;11.35;5.63;;;;;;;9.09;90.45;98809.81;5116071;27;20472;-64
2022/01/01 05:57:52;;;;;;;8.77;5.22;;;;;;;9.12;91.12;98825.69;5115815;27;20119;-66
2022/01/01 06:00:17;;;;;;;6.50;4.38;;;;;;;9.12;90.67;98801.06;5115156;27;20024;-67
2022/01/01 06:02:43;;;;;;;9.23;5.13;;;;;;;9.12;90.41;98814.72;5114257;27;20030;-65
2022/01/01 06:05:10;;;;;;;15.18;7.63;;;;;;;9.14;90.46;98814.44;5110817;27;20044;-65
2022/01/01 06:07:36;;;;;;;10.82;5.30;;;;;;;9.14;90.67;98820.75;5089857;28;20373;-66
2022/01/01 06:10:02;;;;;;;13.40;6.00;;;;;;;9.16;90.85;98823.19;5109295;28;20032;-66
2022/01/01 06:12:27;;;;;;;8.65;4.45;;;;;;;9.18;90.53;98819.06;5109907;28;20475;-67
2022/01/01 06:14:53;;;;;;;8.18;4.40;;;;;;;9.19;90.69;98825.38;5108707;28;20023;-66
2022/01/01 06:17:18;;;;;;;9.75;5.30;;;;;;;9.20;90.44;98827.81;5109189;28;20023;-66
2022/01/01 06:19:44;;;;;;;8.02;4.95;;;;;;;9.20;90.00;98825.09;5109801;28;20023;-66
2022/01/01 06:22:11;;;;;;;7.47;4.45;;;;;;;9.20;90.49;98830.56;5109825;28;20027;-66
2022/01/01 06:24:36;;;;;;;5.20;3.80;;;;;;;9.22;90.21;98831.09;5089794;28;20433;-67
2022/01/01 06:27:02;;;;;;;5.93;3.33;;;;;;;9.26;90.46;98833.28;5108320;28;20024;-68
2022/01/01 06:29:28;;;;;;;4.95;3.35;;;;;;;9.28;90.26;98834.66;5108486;28;20031;-67
2022/01/01 06:31:53;;;;;;;4.90;3.05;;;;;;;9.29;90.39;98839.03;5110058;27;20016;-67
2022/01/01 06:34:18;;;;;;;6.68;4.15;;;;;;;9.30;89.88;98839.84;5108757;28;20483;-67
2022/01/01 06:36:44;;;;;;;5.05;3.42;;;;;;;9.31;90.60;98834.09;5108516;28;20027;-67
2022/01/01 06:39:09;;;;;;;6.60;3.95;;;;;;;9.31;90.54;98845.06;5108834;28;20106;-67
2022/01/01 06:41:35;;;;;;;6.25;3.47;;;;;;;9.32;90.67;98857.63;5108648;28;20095;-67
2022/01/01 06:44:00;;;;;;;5.72;3.75;;;;;;;9.32;90.27;98845.84;5090565;28;20087;-67
2022/01/01 06:46:26;;;;;;;6.85;3.70;;;;;;;9.30;89.85;98843.41;5108223;28;20016;-67
2022/01/01 06:48:51;;;;;;;4.57;3.50;;;;;;;9.31;90.34;98847.78;5108367;28;20026;-67
2022/01/01 06:51:17;;;;;;;4.85;3.78;;;;;;;9.32;90.06;98852.16;5109046;28;20069;-67
2022/01/01 06:53:42;;;;;;;3.78;3.00;;;;;;;9.33;90.04;98851.06;5089617;28;20458;-67
2022/01/01 06:56:09;;;;;;;6.32;3.88;;;;;;;9.30;90.48;98845.31;5106817;28;20042;-67
2022/01/01 06:58:36;;;;;;;5.68;3.80;;;;;;;9.32;89.69;98852.16;5108111;28;20015;-67
2022/01/01 07:01:02;;;;;;;6.72;4.68;;;;;;;9.32;90.61;98856.81;5108103;28;20042;-67
2022/01/01 07:03:27;;;;;;;6.80;5.03;;;;;;;9.32;90.30;98854.91;5108346;28;20432;-67
2022/01/01 07:05:53;;;;;;;7.07;4.63;;;;;;;9.31;90.02;98864.22;5089203;28;20036;-67
2022/01/01 07:08:18;;;;;;;12.65;5.75;;;;;;;9.33;89.98;98875.72;5108225;28;20066;-68
2022/01/01 07:10:45;;;;;;;8.45;5.07;;;;;;;9.35;90.67;98857.09;5108791;28;20023;-67
2022/01/01 07:13:12;;;;;;;6.45;4.40;;;;;;;9.38;89.88;98864.72;5109378;28;20531;-67
2022/01/01 07:15:38;;;;;;;5.57;3.40;;;;;;;9.41;90.35;98881.69;5108514;28;20486;-67
2022/01/01 07:18:03;;;;;;;4.95;3.40;;;;;;;9.39;90.17;98871.84;5108177;28;20019;-67
2022/01/01 07:20:29;;;;;;;7.97;4.63;;;;;;;9.35;89.82;98881.72;5108875;28;20100;-67
2022/01/01 07:22:54;;;;;;;6.18;4.47;;;;;;;9.30;89.95;98883.63;5108850;28;20019;-67
2022/01/01 07:25:20;;;;;;;3.67;2.70;;;;;;;9.29;89.87;98880.09;5089998;28;20043;-67
2022/01/01 07:27:45;;;;;;;5.70;3.60;;;;;;;9.28;90.41;98881.19;5107646;28;20070;-67
2022/01/01 07:30:12;;;;;;;5.78;3.78;;;;;;;9.27;89.98;98884.19;5090313;28;20035;-67
2022/01/01 07:32:39;;;;;;;4.57;3.42;;;;;;;9.25;90.49;98879.00;5110832;28;20020;-67
2022/01/01 07:35:05;;;;;;;5.65;3.90;;;;;;;9.24;90.56;98888.31;5108401;28;20043;-67
2022/01/01 07:37:31;;;;;;;11.02;6.38;;;;;;;9.24;90.65;98902.00;5108068;28;20020;-67
2022/01/01 07:39:56;;;;;;;5.07;3.20;;;;;;;9.21;91.42;98884.19;5110707;28;20065;-67
2022/01/01 07:42:22;;;;;;;5.10;2.90;;;;;;;9.22;90.78;98890.50;5094141;28;20019;-67
2022/01/01 07:44:47;;;;;;;4.10;3.28;;;;;;;9.22;90.64;98885.03;5094121;28;20020;-67
2022/01/01 07:47:13;;;;;;;5.45;3.60;;;;;;;9.21;91.33;98884.19;5111921;28;20111;-66
2022/01/01 07:49:38;;;;;;;5.68;3.45;;;;;;;9.22;90.92;98890.50;5112533;28;20769;-67
2022/01/01 07:52:04;;;;;;;4.88;3.78;;;;;;;9.23;91.10;98906.63;5112513;28;20027;-67
2022/01/01 07:54:29;;;;;;;4.60;3.30;;;;;;;9.26;91.13;98902.53;5112128;28;20016;-67
2022/01/01 07:56:55;;;;;;;5.40;4.38;;;;;;;9.28;91.22;98905.00;5093118;28;20034;-67
2022/01/01 07:59:20;;;;;;;4.88;3.85;;;;;;;9.30;91.06;98902.78;5112263;28;20051;-67
2022/01/01 08:01:45;;;;;;;5.78;3.97;;;;;;;9.34;91.39;98923.88;5112192;28;20141;-67
2022/01/01 08:04:11;;;;;;;5.80;3.55;;;;;;;9.37;90.93;98922.50;5112208;27;20075;-67
2022/01/01 08:06:36;;;;;;;7.40;3.45;;;;;;;9.39;91.18;98915.63;5111711;28;20024;-67
2022/01/01 08:09:03;;;;;;;7.45;5.78;;;;;;;9.41;91.18;98922.75;5093791;28;20498;-67
2022/01/01 08:11:28;;;;;;;6.50;3.92;;;;;;;9.38;90.36;98930.41;5113244;27;20031;-68
2022/01/01 08:13:54;;;;;;;5.75;3.85;;;;;;;9.35;90.86;98927.44;5113241;27;20455;-67
2022/01/01 08:16:20;;;;;;;7.13;4.03;;;;;;;9.34;90.63;98923.03;5111383;28;20100;-67
2022/01/01 08:18:45;;;;;;;7.03;4.15;;;;;;;9.34;91.01;98928.53;5112527;28;20047;-67
2022/01/01 08:21:11;;;;;;;7.72;5.20;;;;;;;9.30;91.16;98944.69;5113998;27;20106;-66
2022/01/01 08:23:36;;;;;;;12.38;6.95;;;;;;;9.31;91.00;98943.59;5115338;27;20016;-67
2022/01/01 08:26:02;;;;;;;10.93;5.55;;;;;;;9.32;90.03;98928.81;5110990;28;20077;-67
2022/01/01 08:28:27;;;;;;;10.65;6.38;;;;;;;9.35;91.03;98946.59;5112419;28;20035;-67
2022/01/01 08:30:53;;;;;;;9.68;5.75;;;;;;;9.33;90.40;98954.25;5113990;27;20020;-67
2022/01/01 08:33:18;;;;;;;8.43;5.30;;;;;;;9.34;90.30;98943.03;5112986;28;20034;-67
2022/01/01 08:35:44;;;;;;;13.90;7.93;;;;;;;9.37;91.00;98944.41;5112868;28;20110;-67
2022/01/01 08:38:09;;;;;;;15.80;7.80;;;;;;;9.42;90.46;98949.03;5113134;27;20031;-67
2022/01/01 08:40:35;;;;;;;12.00;6.15;;;;;;;9.42;90.94;98952.59;5115863;27;20031;-66
2022/01/01 08:43:02;;;;;;;16.95;7.72;;;;;;;9.41;90.51;98961.91;5113907;27;20069;-67
2022/01/01 08:45:27;;;;;;;14.70;8.18;;;;;;;9.41;90.42;98955.59;5112749;28;20030;-67
2022/01/01 08:47:53;;;;;;;17.60;7.75;;;;;;;9.38;90.17;98957.78;5111828;28;20028;-67
2022/01/01 08:50:18;;;;;;;17.83;8.45;;;;;;;9.39;90.59;98964.09;5113134;27;20112;-67
2022/01/01 08:52:45;;;;;;;9.50;5.20;;;;;;;9.39;90.23;98964.09;5112265;28;20353;-67
2022/01/01 08:55:11;;;;;;;7.32;4.18;;;;;;;9.42;90.27;98966.28;5113740;27;20036;-67
2022/01/01 08:57:37;;;;;;;12.48;6.53;;;;;;;9.40;90.27;98968.47;5112455;27;20353;-67
2022/01/01 09:00:07;;;;;;;11.95;6.43;;;;;;;9.39;90.54;98967.66;5111911;27;20035;-67
2022/01/01 09:02:32;;;;;;;11.43;6.03;;;;;;;9.38;90.41;98976.97;5111283;28;20035;-67
2022/01/01 09:04:58;;;;;;;16.98;8.20;;;;;;;9.37;90.87;98974.50;5112090;28;20076;-67
2022/01/01 09:07:29;;;;;;;12.18;6.22;;;;;;;9.36;91.10;98972.88;5112452;27;20011;-68
2022/01/01 09:09:56;;;;;;;15.05;7.72;;;;;;;9.38;90.47;98970.69;5109912;28;20050;-68
2022/01/01 09:12:21;;;;;;;11.57;5.72;;;;;;;9.42;90.78;98973.66;5112072;28;20806;-67
2022/01/01 09:14:47;;;;;;;10.23;5.88;;;;;;;9.46;90.80;98983.81;5113058;27;20019;-67
2022/01/01 09:17:12;;;;;;;14.68;7.28;;;;;;;9.47;90.35;98981.88;5095329;28;20064;-67
2022/01/01 09:19:38;;;;;;;15.43;7.88;;;;;;;9.51;90.63;98982.97;5114218;27;20023;-67
2022/01/01 09:22:03;;;;;;;12.82;7.20;;;;;;;9.56;90.58;98984.91;5111417;28;20379;-67
2022/01/01 09:24:29;;;;;;;10.05;6.45;;;;;;;9.58;90.62;98989.00;5111600;28;20024;-67
2022/01/01 09:26:54;;;;;;;10.13;6.43;;;;;;;9.57;89.79;98976.38;5112493;27;20556;-67
2022/01/01 09:29:20;;;;;;;11.32;6.50;;;;;;;9.59;90.58;98981.56;5112679;28;20426;-67
2022/01/01 09:31:45;;;;;;;9.77;6.43;;;;;;;9.56;90.09;98990.38;5115621;27;20486;-66
2022/01/01 09:34:11;;;;;;;10.32;7.07;;;;;;;9.55;90.45;98995.00;5112507;27;20030;-67
2022/01/01 09:36:37;;;;;;;10.20;6.32;;;;;;;9.52;90.30;98992.81;5111910;28;20361;-68
2022/01/01 09:39:03;;;;;;;10.32;5.88;;;;;;;9.49;90.92;99001.59;5109474;28;20028;-67
2022/01/01 09:41:29;;;;;;;7.63;5.40;;;;;;;9.48;90.11;98998.03;5115693;27;20026;-67
2022/01/01 09:43:56;;;;;;;8.38;5.40;;;;;;;9.53;90.63;98997.22;5112436;27;20027;-67
2022/01/01 09:46:22;;;;;;;8.52;5.80;;;;;;;9.54;90.29;99001.59;5111246;28;20040;-67
2022/01/01 09:48:50;;;;;;;14.05;9.15;;;;;;;9.54;89.38;99001.59;5109959;28;20101;-67
2022/01/01 09:51:16;;;;;;;10.32;6.95;;;;;;;9.55;90.37;99008.72;5112790;27;20030;-67
2022/01/01 09:53:41;;;;;;;9.35;6.00;;;;;;;9.53;89.91;99009.00;5111594;28;20383;-67
2022/01/01 09:56:07;;;;;;;10.27;7.15;;;;;;;9.57;89.89;99011.19;5112023;28;20024;-67
2022/01/01 09:58:37;;;;;;;8.65;5.53;;;;;;;9.56;90.07;99010.34;5113511;27;20032;-67
2022/01/01 10:01:06;;;;;;;13.60;7.88;;;;;;;9.57;89.92;99011.19;5115834;27;20437;-67
2022/01/01 10:03:34;;;;;;;9.88;6.15;;;;;;;9.59;89.58;99012.53;5113016;28;20016;-67
2022/01/01 10:06:06;;;;;;;10.55;6.20;;;;;;;9.61;89.87;99015.81;5112845;28;20403;-67
2022/01/01 10:08:32;;;;;;;11.23;6.28;;;;;;;9.63;89.83;99010.06;5112574;28;20468;-67
2022/01/01 10:10:58;;;;;;;14.13;7.15;;;;;;;9.67;89.62;99013.88;5114068;27;20094;-67
2022/01/01 10:13:32;;;;;;;10.32;6.28;;;;;;;9.70;89.31;99020.75;5112366;28;20062;-67
2022/01/01 10:15:59;;;;;;;12.40;6.65;;;;;;;9.68;89.09;99016.38;5111819;28;20413;-67
2022/01/01 10:18:36;;;;;;;12.18;7.30;;;;;;;9.68;89.26;99021.84;5111661;28;20106;-67
2022/01/01 10:21:05;;;;;;;11.63;6.40;;;;;;;9.73;89.55;99021.00;5112685;28;20088;-68
2022/01/01 10:23:33;;;;;;;12.77;7.07;;;;;;;9.73;89.90;99026.47;5112837;27;20038;-67
2022/01/01 10:29:26;;;;;;;11.80;6.13;;;;;;;9.75;88.53;99023.47;5111610;28;20086;-67
2022/01/01 10:32:00;;;;;;;12.32;6.82;;;;;;;9.72;88.50;99016.63;5113662;27;20081;-67
2022/01/01 10:34:31;;;;;;;14.70;7.40;;;;;;;9.73;89.12;99021.00;5111945;28;20399;-67
2022/01/01 10:36:57;;;;;;;20.02;9.07;;;;;;;9.75;88.87;99016.06;5111307;28;20057;-67
2022/01/01 10:39:23;;;;;;;27.52;12.60;;;;;;;9.81;89.16;99017.69;5113706;27;20149;-67
2022/01/01 10:41:53;;;;;;;20.00;10.45;;;;;;;9.86;88.90;99019.59;5112144;28;20034;-68
2022/01/01 10:44:34;;;;;;;17.83;9.98;;;;;;;9.87;88.57;99023.97;5111817;28;20124;-67
2022/01/01 10:47:17;;;;;;;15.90;8.45;;;;;;;9.88;88.03;99022.88;5108763;28;20032;-67
2022/01/01 10:52:29;;;;;;;16.40;8.60;;;;;;;9.90;88.16;99000.69;5111766;28;20040;-67
2022/01/01 10:54:59;;;;;;;16.13;9.00;;;;;;;9.94;89.04;99007.28;5109783;28;20048;-68
2022/01/01 10:57:25;;;;;;;12.38;8.10;;;;;;;9.91;87.78;99005.09;5109540;28;20107;-67
2022/01/01 10:59:51;;;;;;;17.70;9.00;;;;;;;9.89;88.10;98996.31;5112306;27;20526;-67
2022/01/01 11:02:22;;;;;;;19.70;8.63;;;;;;;9.91;88.48;98996.88;5114980;27;20076;-67
2022/01/01 11:04:48;;;;;;;13.23;7.72;;;;;;;9.97;88.13;99014.94;5093411;28;20039;-67
2022/01/01 11:07:27;;;;;;;19.38;9.93;;;;;;;10.01;88.16;99006.97;5112806;27;20077;-67
2022/01/01 11:09:54;;;;;;;18.73;10.88;;;;;;;9.98;88.26;99000.13;5111197;28;20019;-67
2022/01/01 11:12:21;;;;;;;15.95;9.55;;;;;;;9.93;88.78;98998.22;5094391;28;20086;-67
2022/01/01 11:14:47;;;;;;;12.60;7.68;;;;;;;9.92;87.92;99006.72;5111744;28;20024;-67
2022/01/01 11:17:13;;;;;;;16.77;9.30;;;;;;;9.88;87.88;99000.97;5110674;28;20502;-67
2022/01/01 11:19:40;;;;;;;11.23;6.68;;;;;;;9.85;88.18;99006.19;5110736;28;20020;-67
2022/01/01 11:22:06;;;;;;;11.18;7.63;;;;;;;9.75;88.31;98998.81;5115662;28;20030;-66
2022/01/01 11:24:33;;;;;;;13.23;8.25;;;;;;;9.74;88.24;99008.13;5111493;28;20024;-67
2022/01/01 11:27:00;;;;;;;10.38;6.65;;;;;;;9.70;88.30;99004.31;5110426;28;20038;-67
2022/01/01 11:29:26;;;;;;;13.70;8.63;;;;;;;9.66;88.28;99004.03;5111233;28;20114;-66
2022/01/01 11:31:54;;;;;;;15.23;8.60;;;;;;;9.65;88.30;99010.59;5113289;28;20400;-67
2022/01/01 11:34:20;;;;;;;17.60;11.38;;;;;;;9.62;88.95;99006.50;5111023;28;20028;-67
2022/01/01 11:36:46;;;;;;;18.63;10.63;;;;;;;9.61;88.74;99010.34;5110804;28;20038;-66
2022/01/01 11:39:15;;;;;;;17.52;9.77;;;;;;;9.59;89.21;99001.59;5089564;28;20391;-66
2022/01/01 11:41:43;;;;;;;15.13;9.10;;;;;;;9.60;88.57;99010.59;5111955;28;20015;-66
2022/01/01 11:44:30;;;;;;;20.98;10.38;;;;;;;9.64;89.05;99000.75;5113655;28;20063;-66
2022/01/01 11:47:17;;;;;;;22.00;9.63;;;;;;;9.64;89.04;99006.22;5114357;28;20519;-66